createdAt,value
2018-12-06T00:02:29.049Z,126.00
2018-12-06T00:05:17.191Z,120.82
2018-12-06T00:08:14.045Z,121.82
2018-12-06T00:11:02.373Z,125.50
2018-12-06T00:13:50.963Z,125.27
2018-12-06T00:16:38.572Z,123.92
2018-12-06T00:19:26.530Z,121.42
2018-12-06T00:22:14.397Z,124.42
2018-12-06T00:25:03.440Z,123.18
2018-12-06T00:27:51.452Z,129.12
2018-12-06T00:30:44.488Z,125.82
2018-12-06T00:33:32.686Z,125.55
2018-12-06T00:36:20.443Z,123.62
2018-12-06T00:39:10.222Z,124.38
2018-12-06T00:41:57.823Z,126.07
2018-12-06T00:44:45.946Z,123.35
2018-12-06T00:47:35.150Z,124.07
2018-12-06T00:50:22.591Z,125.53
2018-12-06T00:53:10.765Z,126.80
2018-12-06T00:55:59.005Z,123.18
2018-12-06T00:58:46.941Z,127.60
2018-12-06T01:01:34.705Z,123.95
2018-12-06T01:04:23.807Z,126.05
2018-12-06T01:07:12.359Z,124.67
2018-12-06T01:10:01.537Z,126.87
2018-12-06T01:12:49.875Z,122.90
2018-12-06T01:15:37.682Z,126.55
2018-12-06T01:18:27.300Z,124.50
2018-12-06T01:21:15.302Z,125.07
2018-12-06T01:24:03.458Z,125.95
2018-12-06T01:26:51.974Z,126.38
2018-12-06T01:29:40.695Z,125.90
2018-12-06T01:32:31.773Z,129.27
2018-12-06T01:35:20.470Z,130.80
2018-12-06T01:38:09.039Z,124.35
2018-12-06T01:40:57.315Z,127.27
2018-12-06T01:43:45.268Z,127.10
2018-12-06T01:46:34.028Z,124.35
2018-12-06T01:49:21.778Z,126.42
2018-12-06T01:52:10.708Z,125.30
2018-12-06T01:54:59.653Z,126.30
2018-12-06T01:57:48.009Z,127.25
2018-12-06T02:00:35.893Z,126.35
2018-12-06T02:03:23.886Z,122.30
2018-12-06T02:06:11.210Z,124.58
2018-12-06T02:09:00.145Z,124.85
2018-12-06T02:11:48.127Z,125.00
2018-12-06T02:14:35.972Z,128.02
2018-12-06T02:17:24.068Z,125.02
2018-12-06T02:20:13.557Z,124.80
2018-12-06T02:23:02.214Z,123.60
2018-12-06T02:25:51.048Z,119.45
2018-12-06T02:28:39.480Z,120.53
2018-12-06T02:31:28.208Z,125.82
2018-12-06T02:34:16.279Z,124.87
2018-12-06T02:37:03.976Z,125.80
2018-12-06T02:39:52.356Z,123.75
2018-12-06T02:42:42.112Z,124.58
2018-12-06T02:45:29.853Z,122.10
2018-12-06T02:48:18.733Z,121.47
2018-12-06T02:51:06.977Z,122.17
2018-12-06T02:53:55.561Z,116.82
2018-12-06T02:56:43.505Z,121.15
2018-12-06T02:59:31.413Z,123.20
2018-12-06T03:02:19.330Z,123.87
2018-12-06T03:05:07.476Z,122.98
2018-12-06T03:07:55.193Z,122.35
2018-12-06T03:10:43.416Z,118.15
2018-12-06T03:13:32.995Z,118.75
2018-12-06T03:16:20.838Z,119.75
2018-12-06T03:19:08.939Z,119.30
2018-12-06T03:21:57.644Z,116.65
2018-12-06T03:24:45.511Z,119.77
2018-12-06T03:27:33.787Z,117.65
2018-12-06T03:30:21.536Z,120.37
2018-12-06T03:33:10.166Z,117.90
2018-12-06T03:35:58.138Z,120.72
2018-12-06T03:38:46.158Z,121.62
2018-12-06T03:41:34.424Z,118.75
2018-12-06T03:44:22.261Z,117.28
2018-12-06T03:47:10.232Z,114.57
2018-12-06T03:49:58.951Z,112.85
2018-12-06T03:52:46.995Z,113.28
2018-12-06T03:55:35.489Z,114.67
2018-12-06T03:58:23.299Z,115.17
2018-12-06T04:01:11.372Z,114.05
2018-12-06T04:03:59.334Z,113.00
2018-12-06T04:06:47.361Z,110.83
2018-12-06T04:09:36.228Z,110.72
2018-12-06T04:12:24.445Z,111.50
2018-12-06T04:15:13.022Z,109.03
2018-12-06T04:18:01.958Z,111.30
2018-12-06T04:20:49.531Z,107.47
2018-12-06T04:23:37.944Z,109.80
2018-12-06T04:26:26.808Z,110.72
2018-12-06T04:29:14.938Z,109.27
2018-12-06T04:32:03.661Z,107.30
2018-12-06T04:34:51.384Z,108.92
2018-12-06T04:37:41.069Z,107.12
2018-12-06T04:40:28.869Z,107.85
2018-12-06T04:43:16.866Z,107.30
2018-12-06T04:46:04.654Z,104.07
2018-12-06T04:48:53.003Z,107.25
2018-12-06T04:51:40.524Z,106.60
2018-12-06T04:54:28.508Z,103.72
2018-12-06T04:57:16.864Z,105.52
2018-12-06T05:00:07.862Z,106.75
2018-12-06T05:02:57.206Z,102.10
2018-12-06T05:05:45.836Z,101.95
2018-12-06T05:08:34.810Z,104.17
2018-12-06T05:11:23.428Z,103.30
2018-12-06T05:14:11.928Z,101.40
2018-12-06T05:17:00.694Z,103.87
2018-12-06T05:19:50.236Z,100.62
2018-12-06T05:22:38.427Z,96.85
2018-12-06T05:25:32.177Z,96.32
2018-12-06T05:28:22.515Z,101.30
2018-12-06T05:31:10.850Z,99.65
2018-12-06T05:33:58.475Z,98.85
2018-12-06T05:36:46.696Z,96.70
2018-12-06T05:39:35.482Z,93.00
2018-12-06T05:42:24.172Z,89.85
2018-12-06T05:45:13.206Z,90.97
2018-12-06T05:48:03.242Z,92.42
2018-12-06T05:50:53.141Z,86.67
2018-12-06T05:53:46.251Z,90.15
2018-12-06T05:56:36.007Z,87.55
2018-12-06T05:59:24.274Z,89.13
2018-12-06T06:02:13.649Z,89.28
2018-12-06T06:05:03.232Z,87.70
2018-12-06T06:07:53.177Z,85.62
2018-12-06T06:10:41.717Z,87.20
2018-12-06T06:13:32.726Z,85.92
2018-12-06T06:16:21.927Z,86.50
2018-12-06T06:19:11.926Z,81.95
2018-12-06T06:22:01.466Z,83.35
2018-12-06T06:24:50.631Z,83.05
2018-12-06T06:27:43.518Z,79.77
2018-12-06T06:30:31.736Z,79.82
2018-12-06T06:33:21.471Z,79.00
2018-12-06T06:36:11.901Z,80.20
2018-12-06T06:39:00.914Z,77.95
2018-12-06T06:41:50.467Z,76.05
2018-12-06T06:44:38.966Z,79.22
2018-12-06T06:47:28.513Z,76.87
2018-12-06T06:50:17.354Z,75.08
2018-12-06T06:53:07.308Z,72.47
2018-12-06T06:55:55.781Z,76.28
2018-12-06T06:58:47.516Z,73.07
2018-12-06T07:01:38.844Z,73.95
2018-12-06T07:04:29.479Z,73.92
2018-12-06T07:07:20.371Z,75.30
2018-12-06T07:10:12.899Z,72.50
2018-12-06T07:13:02.881Z,74.12
2018-12-06T07:15:52.770Z,69.72
2018-12-06T07:18:42.164Z,74.53
2018-12-06T07:21:31.631Z,69.75
2018-12-06T07:24:22.427Z,70.85
2018-12-06T07:27:14.027Z,70.17
2018-12-06T07:30:04.293Z,70.28
2018-12-06T07:32:59.478Z,69.40
2018-12-06T07:35:48.192Z,69.82
2018-12-06T07:38:37.566Z,68.15
2018-12-06T07:41:27.338Z,67.35
2018-12-06T07:44:24.519Z,68.05
2018-12-06T07:47:14.944Z,67.82
2018-12-06T07:50:04.529Z,62.25
2018-12-06T07:52:56.794Z,66.07
2018-12-06T07:55:47.044Z,66.37
2018-12-06T07:58:36.589Z,62.20
2018-12-06T08:01:26.609Z,63.58
2018-12-06T08:04:16.313Z,65.55
2018-12-06T08:07:05.630Z,63.25
2018-12-06T08:09:55.196Z,62.85
2018-12-06T08:12:44.688Z,63.40
2018-12-06T08:15:32.801Z,63.95
2018-12-06T08:18:21.107Z,62.58
2018-12-06T08:21:09.180Z,65.83
2018-12-06T08:23:59.121Z,65.28
2018-12-06T08:26:48.961Z,65.45
2018-12-06T08:29:38.561Z,65.10
2018-12-06T08:32:27.453Z,64.00
2018-12-06T08:35:17.299Z,62.45
2018-12-06T08:38:06.679Z,62.17
2018-12-06T08:40:57.560Z,60.85
2018-12-06T08:43:46.520Z,60.50
2018-12-06T08:46:39.208Z,60.98
2018-12-06T08:49:28.710Z,58.55
2018-12-06T08:52:18.343Z,61.98
2018-12-06T08:55:07.785Z,63.17
2018-12-06T08:57:59.532Z,61.75
2018-12-06T09:00:53.678Z,65.50
2018-12-06T09:03:43.431Z,64.58
2018-12-06T09:06:35.185Z,64.03
2018-12-06T09:09:24.144Z,65.47
2018-12-06T09:12:13.764Z,67.53
2018-12-06T09:15:02.898Z,67.40
2018-12-06T09:17:51.702Z,66.07
2018-12-06T09:20:40.511Z,66.07
2018-12-06T09:23:29.558Z,69.30
2018-12-06T09:26:19.341Z,65.32
2018-12-06T09:29:09.656Z,67.35
2018-12-06T09:31:59.930Z,73.47
2018-12-06T09:34:49.257Z,70.67
2018-12-06T09:37:39.306Z,71.12
2018-12-06T09:40:29.873Z,70.10
2018-12-06T09:43:20.127Z,76.87
2018-12-06T09:46:09.980Z,75.03
2018-12-06T09:48:59.804Z,73.40
2018-12-06T09:51:50.357Z,74.32
2018-12-06T09:54:41.070Z,72.27
2018-12-06T09:57:29.632Z,70.05
2018-12-06T10:00:24.150Z,79.62
2018-12-06T10:03:12.449Z,80.00
2018-12-06T10:06:01.023Z,84.55
2018-12-06T10:08:51.672Z,85.75
2018-12-06T10:11:40.769Z,83.95
2018-12-06T10:14:29.730Z,86.57
2018-12-06T10:17:19.421Z,87.30
2018-12-06T10:20:11.633Z,85.77
2018-12-06T10:26:17.582Z,84.75
2018-12-06T10:29:09.667Z,78.72
2018-12-06T10:31:59.058Z,75.57
2018-12-06T10:34:53.459Z,76.50
2018-12-06T10:37:41.417Z,76.92
2018-12-06T10:40:30.834Z,74.15
2018-12-06T10:43:20.761Z,73.05
2018-12-06T10:46:09.815Z,76.12
2018-12-06T10:48:59.366Z,76.17
2018-12-06T10:51:51.430Z,74.50
2018-12-06T10:54:43.670Z,78.22
2018-12-06T10:57:37.280Z,76.70
2018-12-06T11:00:30.274Z,76.17
2018-12-06T11:03:25.204Z,78.47
2018-12-06T11:06:14.267Z,78.90
2018-12-06T11:09:04.231Z,78.80
2018-12-06T11:11:54.779Z,77.60
2018-12-06T11:14:52.991Z,81.82
2018-12-06T11:17:44.689Z,81.10
2018-12-06T11:20:33.131Z,82.62
2018-12-06T11:23:22.282Z,78.92
2018-12-06T11:26:10.963Z,82.42
2018-12-06T11:29:00.197Z,79.42
2018-12-06T11:31:48.723Z,82.20
2018-12-06T11:34:38.056Z,85.62
2018-12-06T11:37:27.862Z,82.95
2018-12-06T11:40:18.080Z,82.78
2018-12-06T11:43:10.340Z,82.57
2018-12-06T11:46:01.323Z,84.55
2018-12-06T11:48:56.866Z,88.67
2018-12-06T11:51:48.785Z,84.87
2018-12-06T11:54:38.528Z,88.72
2018-12-06T11:57:27.853Z,85.10
2018-12-06T12:00:21.908Z,85.92
2018-12-06T12:03:11.100Z,85.38
2018-12-06T12:05:59.560Z,82.42
2018-12-06T12:08:48.529Z,81.35
2018-12-06T12:11:36.445Z,81.92
2018-12-06T12:14:26.493Z,82.53
2018-12-06T12:17:15.104Z,80.00
2018-12-06T12:20:05.422Z,79.53
2018-12-06T12:22:53.871Z,77.55
2018-12-06T12:25:43.834Z,78.85
2018-12-06T12:28:31.596Z,76.77
2018-12-06T12:31:20.815Z,77.17
2018-12-06T12:34:08.629Z,78.25
2018-12-06T12:36:56.373Z,77.17
2018-12-06T12:39:44.454Z,79.03
2018-12-06T12:42:33.123Z,84.03
2018-12-06T12:45:21.805Z,83.37
2018-12-06T12:48:10.107Z,94.30
2018-12-06T12:50:58.723Z,102.00
2018-12-06T12:53:46.139Z,108.57
2018-12-06T12:56:34.328Z,115.52
2018-12-06T12:59:22.218Z,108.78
2018-12-06T13:02:10.230Z,131.20
2018-12-06T13:04:57.922Z,147.50
2018-12-06T13:07:46.606Z,145.75
2018-12-06T13:10:34.711Z,150.32
2018-12-06T13:13:23.319Z,145.02
2018-12-06T13:16:12.498Z,146.00
2018-12-06T13:19:01.580Z,147.10
2018-12-06T13:21:49.859Z,149.97
2018-12-06T13:24:37.774Z,150.75
2018-12-06T13:27:26.441Z,153.10
2018-12-06T13:30:15.093Z,151.68
2018-12-06T13:33:02.966Z,147.13
2018-12-06T13:35:52.306Z,150.18
2018-12-06T13:38:40.655Z,148.82
2018-12-06T13:41:29.624Z,152.47
2018-12-06T13:44:17.093Z,146.22
2018-12-06T13:47:09.310Z,149.25
2018-12-06T13:49:57.384Z,146.25
2018-12-06T13:52:45.485Z,150.45
2018-12-06T13:55:33.210Z,147.82
2018-12-06T13:58:21.314Z,148.38
2018-12-06T14:01:09.339Z,143.43
2018-12-06T14:03:59.238Z,141.77
2018-12-06T14:06:46.875Z,143.15
2018-12-06T14:09:35.024Z,147.17
2018-12-06T14:12:22.783Z,143.35
2018-12-06T14:15:12.613Z,141.00
2018-12-06T14:18:00.495Z,142.40
2018-12-06T14:20:48.603Z,138.22
2018-12-06T14:23:36.507Z,134.25
2018-12-06T14:26:24.355Z,132.10
2018-12-06T14:29:12.579Z,131.00
2018-12-06T14:31:59.806Z,127.25
2018-12-06T14:34:48.471Z,123.10
2018-12-06T14:37:36.205Z,124.02
2018-12-06T14:40:24.303Z,124.85
2018-12-06T14:43:12.140Z,118.97
2018-12-06T14:46:00.590Z,118.85
2018-12-06T14:48:48.220Z,116.28
2018-12-06T14:51:36.216Z,118.42
2018-12-06T14:54:24.283Z,117.55
2018-12-06T14:57:12.552Z,117.30
2018-12-06T15:00:01.040Z,114.90
2018-12-06T15:02:49.598Z,117.90
2018-12-06T15:05:37.745Z,115.92
2018-12-06T15:08:25.753Z,117.00
2018-12-06T15:11:13.409Z,118.02
2018-12-06T15:14:01.168Z,119.25
2018-12-06T15:16:50.248Z,115.15
2018-12-06T15:19:38.353Z,119.45
2018-12-06T15:22:26.266Z,119.53
2018-12-06T15:25:15.503Z,119.25
2018-12-06T15:28:04.220Z,118.93
2018-12-06T15:30:52.695Z,118.20
2018-12-06T15:33:41.356Z,117.65
2018-12-06T15:36:29.131Z,117.75
2018-12-06T15:39:17.109Z,120.08
2018-12-06T15:42:06.167Z,114.65
2018-12-06T15:44:55.078Z,112.65
2018-12-06T15:47:44.308Z,119.20
2018-12-06T15:50:33.242Z,116.42
2018-12-06T15:53:21.986Z,114.67
2018-12-06T15:56:10.914Z,115.15
2018-12-06T15:58:59.142Z,115.92
2018-12-06T16:01:48.065Z,115.50
2018-12-06T16:04:36.926Z,114.57
2018-12-06T16:07:25.353Z,118.17
2018-12-06T16:10:14.810Z,113.80
2018-12-06T16:13:03.566Z,115.30
2018-12-06T16:15:52.584Z,112.50
2018-12-06T16:18:41.313Z,110.85
2018-12-06T16:21:30.113Z,111.60
2018-12-06T16:24:18.595Z,108.67
2018-12-06T16:27:07.201Z,108.83
2018-12-06T16:29:55.591Z,110.28
2018-12-06T16:32:45.047Z,110.32
2018-12-06T16:35:34.003Z,111.65
2018-12-06T16:38:23.135Z,111.05
2018-12-06T16:41:12.199Z,113.22
2018-12-06T16:44:00.667Z,118.40
2018-12-06T16:46:49.933Z,118.97
2018-12-06T16:49:39.347Z,114.52
2018-12-06T16:52:27.754Z,120.05
2018-12-06T16:55:16.517Z,119.40
2018-12-06T16:58:05.964Z,120.90
2018-12-06T17:00:55.838Z,120.15
2018-12-06T17:03:43.998Z,116.62
2018-12-06T17:06:32.121Z,120.57
2018-12-06T17:09:20.717Z,119.55
2018-12-06T17:12:08.392Z,121.22
2018-12-06T17:14:56.807Z,117.50
2018-12-06T17:17:44.075Z,118.33
2018-12-06T17:20:32.476Z,117.57
2018-12-06T17:23:21.089Z,115.05
2018-12-06T17:26:10.100Z,117.53
2018-12-06T17:28:57.687Z,115.85
2018-12-06T17:31:45.296Z,117.77
2018-12-06T17:34:33.401Z,119.08
2018-12-06T17:37:21.472Z,118.35
2018-12-06T17:40:09.877Z,120.72
2018-12-06T17:42:58.058Z,120.15
2018-12-06T17:45:46.795Z,124.05
2018-12-06T17:48:34.923Z,122.87
2018-12-06T17:51:23.957Z,122.87
2018-12-06T17:54:12.029Z,120.35
2018-12-06T17:57:00.303Z,121.72
2018-12-06T17:59:48.887Z,119.40
2018-12-06T18:02:36.823Z,118.80
2018-12-06T18:05:25.914Z,119.00
2018-12-06T18:08:14.499Z,118.65
2018-12-06T18:11:03.090Z,120.05
2018-12-06T18:13:51.855Z,116.88
2018-12-06T18:16:40.609Z,115.60
2018-12-06T18:19:28.551Z,117.42
2018-12-06T18:22:16.480Z,119.28
2018-12-06T18:25:04.362Z,116.57
2018-12-06T18:27:52.277Z,112.75
2018-12-06T18:30:40.965Z,116.08
2018-12-06T18:33:30.292Z,114.90
2018-12-06T18:36:18.796Z,115.40
2018-12-06T18:39:08.937Z,116.20
2018-12-06T18:41:56.972Z,117.00
2018-12-06T18:44:44.922Z,115.12
2018-12-06T18:47:34.165Z,114.82
2018-12-06T18:50:24.224Z,112.30
2018-12-06T18:53:12.655Z,110.68
2018-12-06T18:56:01.937Z,109.50
2018-12-06T18:58:49.496Z,110.97
2018-12-06T19:01:37.607Z,113.03
2018-12-06T19:04:25.455Z,112.12
2018-12-06T19:07:14.463Z,113.42
2018-12-06T19:10:03.042Z,110.20
2018-12-06T19:12:50.928Z,114.15
2018-12-06T19:15:38.872Z,113.40
2018-12-06T19:18:28.066Z,113.77
2018-12-06T19:21:16.830Z,113.12
2018-12-06T19:24:04.899Z,113.80
2018-12-06T19:26:51.633Z,109.15
2018-12-06T19:29:41.406Z,112.50
2018-12-06T19:32:29.825Z,111.15
2018-12-06T19:35:17.819Z,113.12
2018-12-06T19:38:05.765Z,112.15
2018-12-06T19:40:54.298Z,111.08
2018-12-06T19:43:42.009Z,110.03
2018-12-06T19:46:30.015Z,110.72
2018-12-06T19:49:17.945Z,109.42
2018-12-06T19:52:06.307Z,107.75
2018-12-06T19:54:55.163Z,105.05
2018-12-06T19:57:44.273Z,108.32
2018-12-06T20:00:33.172Z,106.70
2018-12-06T20:03:22.065Z,105.87
2018-12-06T20:06:11.491Z,104.67
2018-12-06T20:08:59.471Z,105.60
2018-12-06T20:11:47.511Z,103.15
2018-12-06T20:14:35.548Z,103.70
2018-12-06T20:17:23.443Z,111.88
2018-12-06T20:20:12.652Z,105.45
2018-12-06T20:23:01.140Z,106.03
2018-12-06T20:25:49.974Z,108.27
2018-12-06T20:28:38.273Z,110.05
2018-12-06T20:31:26.461Z,109.50
2018-12-06T20:34:16.806Z,109.32
2018-12-06T20:37:05.857Z,114.52
2018-12-06T20:39:53.904Z,113.68
2018-12-06T20:42:42.678Z,116.33
2018-12-06T20:45:32.665Z,119.20
2018-12-06T20:48:19.929Z,122.40
2018-12-06T20:51:08.730Z,126.07
2018-12-06T20:53:56.734Z,126.50
2018-12-06T20:56:44.527Z,128.97
2018-12-06T20:59:32.377Z,133.85
2018-12-06T21:02:21.359Z,135.43
2018-12-06T21:05:09.656Z,135.40
2018-12-06T21:07:58.253Z,135.95
2018-12-06T21:10:46.061Z,137.88
2018-12-06T21:13:33.876Z,139.03
2018-12-06T21:16:22.140Z,139.72
2018-12-06T21:19:09.655Z,139.15
2018-12-06T21:21:57.559Z,144.35
2018-12-06T21:24:45.455Z,144.68
2018-12-06T21:27:33.031Z,139.18
2018-12-06T21:30:21.183Z,143.95
2018-12-06T21:33:09.707Z,142.77
2018-12-06T21:35:58.100Z,139.82
2018-12-06T21:38:45.833Z,136.22
2018-12-06T21:41:33.347Z,141.25
2018-12-06T21:44:21.756Z,136.72
2018-12-06T21:47:12.263Z,137.25
2018-12-06T21:50:00.409Z,135.75
2018-12-06T21:52:50.594Z,136.88
2018-12-06T21:55:38.473Z,138.12
2018-12-06T21:58:26.412Z,134.75
2018-12-06T22:01:14.351Z,136.50
2018-12-06T22:04:03.743Z,136.00
2018-12-06T22:06:53.069Z,137.03
2018-12-06T22:09:41.179Z,135.80
2018-12-06T22:12:29.348Z,135.57
2018-12-06T22:15:17.356Z,134.07
2018-12-06T22:18:05.955Z,137.30
2018-12-06T22:20:54.182Z,131.85
2018-12-06T22:23:42.589Z,133.82
2018-12-06T22:26:30.698Z,128.93
2018-12-06T22:29:18.748Z,130.60
2018-12-06T22:32:07.074Z,131.78
2018-12-06T22:34:56.389Z,128.32
2018-12-06T22:37:45.299Z,127.30
2018-12-06T22:40:34.471Z,131.22
2018-12-06T22:43:22.910Z,128.65
2018-12-06T22:46:11.989Z,130.15
2018-12-06T22:48:59.671Z,131.50
2018-12-06T22:51:47.643Z,132.57
2018-12-06T22:54:36.758Z,131.32
2018-12-06T22:57:25.184Z,133.47
2018-12-06T23:00:17.474Z,133.60
2018-12-06T23:03:07.903Z,131.40
2018-12-06T23:05:56.919Z,135.07
2018-12-06T23:08:45.098Z,141.22
2018-12-06T23:11:32.812Z,138.90
2018-12-06T23:14:20.490Z,143.68
2018-12-06T23:17:08.783Z,139.22
2018-12-06T23:19:56.245Z,138.22
2018-12-06T23:22:44.303Z,144.13
2018-12-06T23:25:32.031Z,147.85
2018-12-06T23:28:20.193Z,149.10
2018-12-06T23:31:08.260Z,148.40
2018-12-06T23:34:00.682Z,153.50
2018-12-06T23:36:48.645Z,153.70
2018-12-06T23:39:36.573Z,153.40
2018-12-06T23:42:24.298Z,153.95
2018-12-06T23:45:12.268Z,158.07
2018-12-06T23:48:00.338Z,155.78
2018-12-06T23:50:48.264Z,158.15
2018-12-06T23:53:38.652Z,155.18
2018-12-06T23:56:27.260Z,151.30
2018-12-06T23:59:15.191Z,156.60
